createdAt,value
2022-07-29T00:00:21.396Z,28.15
2022-07-29T00:00:45.419Z,28.10
2022-07-29T00:01:09.464Z,28.13
2022-07-29T00:01:41.890Z,28.11
2022-07-29T00:02:03.789Z,28.10
2022-07-29T00:02:25.732Z,28.09
2022-07-29T00:02:48.534Z,28.10
2022-07-29T00:03:10.378Z,28.09
2022-07-29T00:03:32.160Z,28.09
2022-07-29T00:03:53.944Z,28.06
2022-07-29T00:04:16.974Z,28.05
2022-07-29T00:04:39.109Z,28.05
2022-07-29T00:05:00.938Z,28.04
2022-07-29T00:05:22.647Z,28.04
2022-07-29T00:05:45.316Z,27.97
2022-07-29T00:06:07.290Z,28.02
2022-07-29T00:06:29.026Z,28.03
2022-07-29T00:06:50.709Z,28.00
2022-07-29T00:07:13.301Z,28.01
2022-07-29T00:07:35.698Z,28.03
2022-07-29T00:07:57.597Z,28.04
2022-07-29T00:08:19.670Z,28.04
2022-07-29T00:08:41.367Z,28.03
2022-07-29T00:09:04.289Z,28.03
2022-07-29T00:09:25.975Z,28.03
2022-07-29T00:09:51.733Z,28.04
2022-07-29T00:10:14.383Z,28.04
2022-07-29T00:10:37.452Z,28.04
2022-07-29T00:10:59.454Z,28.04
2022-07-29T00:11:21.183Z,28.03
2022-07-29T00:11:44.229Z,28.06
2022-07-29T00:12:06.617Z,28.06
2022-07-29T00:12:31.794Z,28.08
2022-07-29T00:12:53.996Z,28.08
2022-07-29T00:13:16.851Z,28.08
2022-07-29T00:13:38.789Z,28.06
2022-07-29T00:14:00.509Z,28.05
2022-07-29T00:14:59.314Z,27.99
2022-07-29T00:15:21.109Z,27.98
2022-07-29T00:15:43.204Z,27.97
2022-07-29T00:16:06.227Z,27.97
2022-07-29T00:16:29.452Z,27.97
2022-07-29T00:16:51.274Z,27.96
2022-07-29T00:17:13.141Z,27.97
2022-07-29T00:17:41.780Z,27.98
2022-07-29T00:18:03.623Z,27.96
2022-07-29T00:18:25.353Z,27.98
2022-07-29T00:18:47.158Z,27.97
2022-07-29T00:19:09.948Z,27.98
2022-07-29T00:19:32.709Z,27.99
2022-07-29T00:19:54.728Z,27.98
2022-07-29T00:20:16.849Z,27.99
2022-07-29T00:20:39.560Z,27.95
2022-07-29T00:21:01.354Z,27.98
2022-07-29T00:21:22.986Z,27.96
2022-07-29T00:21:44.636Z,27.96
2022-07-29T00:22:07.262Z,27.97
2022-07-29T00:22:29.006Z,27.97
2022-07-29T00:22:50.803Z,27.98
2022-07-29T00:23:13.717Z,27.99
2022-07-29T00:23:37.006Z,27.99
2022-07-29T00:23:58.772Z,27.96
2022-07-29T00:24:20.515Z,27.98
2022-07-29T00:24:42.317Z,28.00
2022-07-29T00:25:06.745Z,27.96
2022-07-29T00:25:29.440Z,28.00
2022-07-29T00:25:51.243Z,27.99
2022-07-29T00:26:12.924Z,27.98
2022-07-29T00:26:34.734Z,27.98
2022-07-29T00:26:57.428Z,27.98
2022-07-29T00:27:19.181Z,27.96
2022-07-29T00:27:41.073Z,27.94
2022-07-29T00:28:02.769Z,27.93
2022-07-29T00:28:25.442Z,27.95
2022-07-29T00:28:47.176Z,27.97
2022-07-29T00:29:51.546Z,27.97
2022-07-29T00:30:13.799Z,27.97
2022-07-29T00:30:35.509Z,27.98
2022-07-29T00:30:57.190Z,27.98
2022-07-29T00:31:19.980Z,27.97
2022-07-29T00:31:43.145Z,27.95
2022-07-29T00:32:05.365Z,27.95
2022-07-29T00:32:26.986Z,27.93
2022-07-29T00:32:48.668Z,27.93
2022-07-29T00:33:11.486Z,27.92
2022-07-29T00:33:33.156Z,27.93
2022-07-29T00:33:55.206Z,27.93
2022-07-29T00:34:35.828Z,27.92
2022-07-29T00:35:16.335Z,27.92
2022-07-29T00:35:47.338Z,27.91
2022-07-29T00:36:09.104Z,27.89
2022-07-29T00:36:30.805Z,27.89
2022-07-29T00:36:53.455Z,27.88
2022-07-29T00:37:15.148Z,27.89
2022-07-29T00:37:36.863Z,27.72
2022-07-29T00:37:58.571Z,27.92
2022-07-29T00:38:21.921Z,27.91
2022-07-29T00:38:46.082Z,27.91
2022-07-29T00:39:07.869Z,27.90
2022-07-29T00:39:30.426Z,27.90
2022-07-29T00:39:53.333Z,27.91
2022-07-29T00:40:15.050Z,27.90
2022-07-29T00:40:36.782Z,27.93
2022-07-29T00:41:02.509Z,27.92
2022-07-29T00:41:24.228Z,27.93
2022-07-29T00:41:45.945Z,27.90
2022-07-29T00:42:07.927Z,27.91
2022-07-29T00:42:30.748Z,27.91
2022-07-29T00:42:53.456Z,27.91
2022-07-29T00:43:15.718Z,27.93
2022-07-29T00:43:37.501Z,27.89
2022-07-29T00:44:00.192Z,27.92
2022-07-29T00:44:21.931Z,27.90
2022-07-29T00:44:43.780Z,27.90
2022-07-29T00:45:06.344Z,27.91
2022-07-29T00:45:29.148Z,27.93
2022-07-29T00:45:50.843Z,27.95
2022-07-29T00:46:13.258Z,27.92
2022-07-29T00:46:35.051Z,27.96
2022-07-29T00:46:59.195Z,27.94
2022-07-29T00:47:20.930Z,27.92
2022-07-29T00:47:42.674Z,27.93
2022-07-29T00:48:06.400Z,27.91
2022-07-29T00:48:28.273Z,27.93
2022-07-29T00:48:50.192Z,27.93
2022-07-29T00:49:12.262Z,27.94
2022-07-29T00:49:35.797Z,27.95
2022-07-29T00:49:57.501Z,27.94
2022-07-29T00:50:19.703Z,27.94
2022-07-29T00:50:43.392Z,27.92
2022-07-29T00:51:06.597Z,27.88
2022-07-29T00:51:28.434Z,27.88
2022-07-29T00:51:51.005Z,27.89
2022-07-29T00:52:16.910Z,27.90
2022-07-29T00:52:40.913Z,27.88
2022-07-29T00:53:04.102Z,27.87
2022-07-29T00:53:27.556Z,27.84
2022-07-29T00:53:51.907Z,27.85
2022-07-29T00:54:14.046Z,27.84
2022-07-29T00:54:39.819Z,27.83
2022-07-29T00:55:10.445Z,27.84
2022-07-29T00:55:32.155Z,27.82
2022-07-29T00:55:54.912Z,27.83
2022-07-29T00:56:16.699Z,27.83
2022-07-29T00:56:38.535Z,27.83
2022-07-29T00:57:01.860Z,27.80
2022-07-29T00:57:23.671Z,27.86
2022-07-29T00:57:46.037Z,27.87
2022-07-29T00:58:08.877Z,27.86
2022-07-29T00:58:30.583Z,27.87
2022-07-29T00:58:53.065Z,27.88
2022-07-29T00:59:14.842Z,27.88
2022-07-29T00:59:36.584Z,27.87
2022-07-29T00:59:59.292Z,27.83
2022-07-29T01:00:24.737Z,27.87
2022-07-29T01:00:46.528Z,27.85
2022-07-29T01:01:08.310Z,27.87
2022-07-29T01:01:31.010Z,27.84
2022-07-29T01:01:52.815Z,27.87
2022-07-29T01:02:16.258Z,27.84
2022-07-29T01:02:38.109Z,27.85
2022-07-29T01:03:00.898Z,27.86
2022-07-29T01:03:23.722Z,27.88
2022-07-29T01:03:45.440Z,27.85
2022-07-29T01:04:07.535Z,27.85
2022-07-29T01:04:30.608Z,27.85
2022-07-29T01:04:53.483Z,27.86
2022-07-29T01:05:17.501Z,27.84
2022-07-29T01:05:50.289Z,27.85
2022-07-29T01:06:13.909Z,27.82
2022-07-29T01:06:35.847Z,27.85
2022-07-29T01:06:57.977Z,27.84
2022-07-29T01:07:21.291Z,27.77
2022-07-29T01:07:43.983Z,27.77
2022-07-29T01:08:08.226Z,27.82
2022-07-29T01:08:34.073Z,27.77
2022-07-29T01:08:57.725Z,27.82
2022-07-29T01:09:20.201Z,27.85
2022-07-29T01:10:04.652Z,27.87
2022-07-29T01:10:27.196Z,27.90
2022-07-29T01:10:50.213Z,27.89
2022-07-29T01:11:14.271Z,27.87
2022-07-29T01:11:37.055Z,27.87
2022-07-29T01:12:01.384Z,27.89
2022-07-29T01:12:27.133Z,27.87
2022-07-29T01:12:51.756Z,27.83
2022-07-29T01:13:16.672Z,27.85
2022-07-29T01:13:38.787Z,27.80
2022-07-29T01:14:01.603Z,27.81
2022-07-29T01:14:24.079Z,27.81
2022-07-29T01:14:50.613Z,27.78
2022-07-29T01:15:13.088Z,27.81
2022-07-29T01:15:38.078Z,27.83
2022-07-29T01:16:17.138Z,27.82
2022-07-29T01:16:46.926Z,27.85
2022-07-29T01:17:13.565Z,27.84
2022-07-29T01:17:41.348Z,27.87
2022-07-29T01:18:22.203Z,27.88
2022-07-29T01:18:47.917Z,27.88
2022-07-29T01:19:35.221Z,27.85
2022-07-29T01:20:04.631Z,27.87
2022-07-29T01:20:33.699Z,27.87
2022-07-29T01:21:23.610Z,27.88
2022-07-29T01:21:52.902Z,27.85
2022-07-29T01:22:27.317Z,27.82
2022-07-29T01:23:10.487Z,27.86
2022-07-29T01:23:54.600Z,27.87
2022-07-29T01:24:34.765Z,27.87
2022-07-29T01:25:14.595Z,27.85
2022-07-29T01:26:25.295Z,27.86
2022-07-29T01:26:51.451Z,27.85
2022-07-29T01:27:30.576Z,27.85
2022-07-29T01:28:08.725Z,27.84
2022-07-29T01:29:00.375Z,27.84
2022-07-29T01:29:29.860Z,27.84
2022-07-29T01:30:05.407Z,27.85
2022-07-29T01:30:30.182Z,27.86
2022-07-29T01:30:55.797Z,27.86
2022-07-29T01:31:26.630Z,27.86
2022-07-29T01:31:59.261Z,27.82
2022-07-29T01:32:29.863Z,27.84
2022-07-29T01:32:56.069Z,27.86
2022-07-29T01:33:34.310Z,27.87
2022-07-29T01:34:00.170Z,27.86
2022-07-29T01:34:29.149Z,27.88
2022-07-29T01:34:55.472Z,27.90
2022-07-29T01:35:21.514Z,27.91
2022-07-29T01:35:46.186Z,27.87
2022-07-29T01:36:13.144Z,27.91
2022-07-29T01:36:38.284Z,27.88
2022-07-29T01:37:10.261Z,27.92
2022-07-29T01:37:39.558Z,27.91
2022-07-29T01:38:09.420Z,27.92
2022-07-29T01:38:31.207Z,27.92
2022-07-29T01:39:01.162Z,27.95
2022-07-29T01:39:28.201Z,27.95
2022-07-29T01:39:52.589Z,27.94
2022-07-29T01:40:22.577Z,27.91
2022-07-29T01:40:49.009Z,27.92
2022-07-29T01:41:16.027Z,27.90
2022-07-29T01:41:44.801Z,27.90
2022-07-29T01:42:16.441Z,27.89
2022-07-29T01:42:43.084Z,27.88
2022-07-29T01:43:13.801Z,27.88
2022-07-29T01:43:41.643Z,27.88
2022-07-29T01:44:13.583Z,27.88
2022-07-29T01:44:40.833Z,27.89
2022-07-29T01:45:09.302Z,27.89
2022-07-29T01:45:40.244Z,27.89
2022-07-29T01:46:05.385Z,27.88
2022-07-29T01:46:32.951Z,27.90
2022-07-29T01:47:00.180Z,27.88
2022-07-29T01:47:26.516Z,27.90
2022-07-29T01:47:55.363Z,27.90
2022-07-29T01:48:21.933Z,27.91
2022-07-29T01:48:48.408Z,27.89
2022-07-29T01:49:15.074Z,27.91
2022-07-29T01:49:40.876Z,27.88
2022-07-29T01:50:09.256Z,27.88
2022-07-29T01:50:35.685Z,27.87
2022-07-29T01:51:03.198Z,27.86
2022-07-29T01:51:30.202Z,27.86
2022-07-29T01:51:56.447Z,27.85
2022-07-29T01:52:23.181Z,27.84
2022-07-29T01:52:50.624Z,27.86
2022-07-29T01:53:16.895Z,27.83
2022-07-29T01:53:47.152Z,27.83
2022-07-29T01:54:14.248Z,27.83
2022-07-29T01:54:43.728Z,27.84
2022-07-29T01:55:12.971Z,27.83
2022-07-29T01:55:39.689Z,27.80
2022-07-29T01:56:04.567Z,27.83
2022-07-29T01:56:30.680Z,27.83
2022-07-29T01:56:54.606Z,27.82
2022-07-29T01:57:19.421Z,27.79
2022-07-29T01:57:46.049Z,27.80
2022-07-29T01:58:08.656Z,27.81
2022-07-29T01:58:32.437Z,27.82
2022-07-29T01:58:55.481Z,27.79
2022-07-29T01:59:20.944Z,27.80
2022-07-29T01:59:46.157Z,27.79
2022-07-29T02:00:09.713Z,27.77
2022-07-29T02:00:35.315Z,27.77
2022-07-29T02:01:00.310Z,27.73
2022-07-29T02:01:25.209Z,27.73
2022-07-29T02:01:49.532Z,27.69
2022-07-29T02:02:14.837Z,27.70
2022-07-29T02:02:38.724Z,27.68
2022-07-29T02:03:06.060Z,27.69
2022-07-29T02:03:28.893Z,27.68
2022-07-29T02:03:53.621Z,27.66
2022-07-29T02:04:29.159Z,27.65
2022-07-29T02:04:55.057Z,27.64
2022-07-29T02:05:19.809Z,27.65
2022-07-29T02:05:46.448Z,27.65
2022-07-29T02:06:10.485Z,27.66
2022-07-29T02:06:35.365Z,27.64
2022-07-29T02:07:01.552Z,27.63
2022-07-29T02:07:26.364Z,27.62
2022-07-29T02:07:49.516Z,27.63
2022-07-29T02:08:13.878Z,27.63
2022-07-29T02:08:39.032Z,27.63
2022-07-29T02:09:03.309Z,27.64
2022-07-29T02:09:27.109Z,27.64
2022-07-29T02:09:52.258Z,27.63
2022-07-29T02:10:15.686Z,27.62
2022-07-29T02:10:41.133Z,27.61
2022-07-29T02:11:05.938Z,27.60
2022-07-29T02:11:29.255Z,27.62
2022-07-29T02:11:56.192Z,27.62
2022-07-29T02:12:19.431Z,27.62
2022-07-29T02:12:48.616Z,27.60
2022-07-29T02:13:14.539Z,27.64
2022-07-29T02:13:38.709Z,27.64
2022-07-29T02:14:02.469Z,27.64
2022-07-29T02:14:28.765Z,27.64
2022-07-29T02:14:55.491Z,27.62
2022-07-29T02:15:19.157Z,27.64
2022-07-29T02:15:43.409Z,27.65
2022-07-29T02:16:08.937Z,27.65
2022-07-29T02:16:32.741Z,27.67
2022-07-29T02:16:57.043Z,27.66
2022-07-29T02:17:23.474Z,27.66
2022-07-29T02:17:52.036Z,27.66
2022-07-29T02:18:17.596Z,27.65
2022-07-29T02:18:45.489Z,27.64
2022-07-29T02:19:09.654Z,27.63
2022-07-29T02:19:34.961Z,27.63
2022-07-29T02:20:00.276Z,27.63
2022-07-29T02:20:23.791Z,27.60
2022-07-29T02:20:49.201Z,27.59
2022-07-29T02:21:15.550Z,27.57
2022-07-29T02:21:39.368Z,27.57
2022-07-29T02:22:02.614Z,27.56
2022-07-29T02:22:26.135Z,27.56
2022-07-29T02:22:50.737Z,27.55
2022-07-29T02:23:14.058Z,27.52
2022-07-29T02:23:50.285Z,27.55
2022-07-29T02:24:18.664Z,27.55
2022-07-29T02:24:42.216Z,27.49
2022-07-29T02:25:05.520Z,27.52
2022-07-29T02:25:37.406Z,27.49
2022-07-29T02:26:00.698Z,27.47
2022-07-29T02:26:25.375Z,27.47
2022-07-29T02:26:48.945Z,27.48
2022-07-29T02:27:12.895Z,27.46
2022-07-29T02:27:35.953Z,27.47
2022-07-29T02:27:59.547Z,27.45
2022-07-29T02:28:23.654Z,27.44
2022-07-29T02:28:47.897Z,27.42
2022-07-29T02:29:11.151Z,27.41
2022-07-29T02:29:36.762Z,27.40
2022-07-29T02:30:02.577Z,27.42
2022-07-29T02:30:26.524Z,27.41
2022-07-29T02:30:50.947Z,27.41
2022-07-29T02:31:14.810Z,27.39
2022-07-29T02:31:39.863Z,27.38
2022-07-29T02:32:02.140Z,27.37
2022-07-29T02:32:25.685Z,27.38
2022-07-29T02:32:49.378Z,27.35
2022-07-29T02:33:16.210Z,27.37
2022-07-29T02:33:40.442Z,27.36
2022-07-29T02:34:04.507Z,27.34
2022-07-29T02:34:28.096Z,27.35
2022-07-29T02:34:51.849Z,27.31
2022-07-29T02:35:15.946Z,27.31
2022-07-29T02:35:39.127Z,27.30
2022-07-29T02:36:02.611Z,27.29
2022-07-29T02:36:26.878Z,27.30
2022-07-29T02:36:49.642Z,27.29
2022-07-29T02:37:12.770Z,27.31
2022-07-29T02:37:36.307Z,27.29
2022-07-29T02:38:16.961Z,27.29
2022-07-29T02:38:54.452Z,27.33
2022-07-29T02:39:16.658Z,27.32
2022-07-29T02:39:40.210Z,27.33
2022-07-29T02:40:02.965Z,27.31
2022-07-29T02:40:25.785Z,27.29
2022-07-29T02:40:49.356Z,27.25
2022-07-29T02:41:16.580Z,27.26
2022-07-29T02:41:43.058Z,27.25
2022-07-29T02:42:09.227Z,27.21
2022-07-29T02:42:33.285Z,27.23
2022-07-29T02:42:55.763Z,27.25
2022-07-29T02:43:19.773Z,27.26
2022-07-29T02:43:45.470Z,27.23
2022-07-29T02:44:10.967Z,27.24
2022-07-29T02:44:35.431Z,27.21
2022-07-29T02:44:58.461Z,27.16
2022-07-29T02:45:20.289Z,27.19
2022-07-29T02:45:43.750Z,27.19
2022-07-29T02:46:27.988Z,27.21
2022-07-29T02:46:54.111Z,27.17
2022-07-29T02:47:20.246Z,27.18
2022-07-29T02:47:45.860Z,27.18
2022-07-29T02:48:14.108Z,27.17
2022-07-29T02:48:38.667Z,27.15
2022-07-29T02:49:09.249Z,27.16
2022-07-29T02:49:37.727Z,27.18
2022-07-29T02:50:05.538Z,27.18
2022-07-29T02:50:33.900Z,27.17
2022-07-29T02:51:05.983Z,27.16
2022-07-29T02:51:42.579Z,27.17
2022-07-29T02:52:14.488Z,27.17
2022-07-29T02:52:40.822Z,27.16
2022-07-29T02:53:10.373Z,27.17
2022-07-29T02:53:34.379Z,27.19
2022-07-29T02:54:01.498Z,27.20
2022-07-29T02:54:31.835Z,27.19
2022-07-29T02:54:56.983Z,27.17
2022-07-29T02:55:25.791Z,27.15
2022-07-29T02:55:52.517Z,27.16
2022-07-29T02:56:17.533Z,27.14
2022-07-29T02:56:41.449Z,27.15
2022-07-29T02:57:10.360Z,27.13
2022-07-29T02:57:36.092Z,27.13
2022-07-29T02:58:27.234Z,27.14
2022-07-29T02:58:55.307Z,27.13
2022-07-29T02:59:22.427Z,27.13
2022-07-29T02:59:48.361Z,27.09
2022-07-29T03:00:13.008Z,27.12
2022-07-29T03:00:39.861Z,27.13
2022-07-29T03:01:09.085Z,27.11
2022-07-29T03:01:33.850Z,27.11
2022-07-29T03:01:57.128Z,27.11
2022-07-29T03:02:20.629Z,27.10
2022-07-29T03:02:46.020Z,27.11
2022-07-29T03:03:13.281Z,27.10
2022-07-29T03:03:39.474Z,27.11
2022-07-29T03:04:05.257Z,27.10
2022-07-29T03:04:30.119Z,27.09
2022-07-29T03:04:53.710Z,27.07
2022-07-29T03:05:20.453Z,27.10
2022-07-29T03:05:42.399Z,27.09
2022-07-29T03:06:06.090Z,27.08
2022-07-29T03:06:37.950Z,27.11
2022-07-29T03:07:03.843Z,27.03
2022-07-29T03:07:26.106Z,27.08
2022-07-29T03:07:54.434Z,27.06
2022-07-29T03:08:17.808Z,27.04
2022-07-29T03:08:41.357Z,27.03
2022-07-29T03:09:05.036Z,27.04
2022-07-29T03:09:31.200Z,27.04
2022-07-29T03:09:54.684Z,27.05
2022-07-29T03:10:19.912Z,27.04
2022-07-29T03:10:48.366Z,27.04
2022-07-29T03:11:12.068Z,27.02
2022-07-29T03:11:40.063Z,27.03
2022-07-29T03:12:14.909Z,27.04
2022-07-29T03:12:37.309Z,27.05
2022-07-29T03:13:01.702Z,27.04
2022-07-29T03:13:24.782Z,27.03
2022-07-29T03:13:46.716Z,27.04
2022-07-29T03:14:08.528Z,27.04
2022-07-29T03:14:32.292Z,27.04
2022-07-29T03:14:56.995Z,27.08
2022-07-29T03:15:19.913Z,27.10
2022-07-29T03:15:44.487Z,27.09
2022-07-29T03:16:07.155Z,27.11
2022-07-29T03:16:30.393Z,27.12
2022-07-29T03:16:52.962Z,27.13
2022-07-29T03:17:15.701Z,27.12
2022-07-29T03:17:38.557Z,27.14
2022-07-29T03:18:02.247Z,27.14
2022-07-29T03:18:24.334Z,27.15
2022-07-29T03:18:46.452Z,27.15
2022-07-29T03:19:08.267Z,27.15
2022-07-29T03:19:31.581Z,27.16
2022-07-29T03:19:53.493Z,27.17
2022-07-29T03:20:15.702Z,27.18
2022-07-29T03:20:38.994Z,27.18
2022-07-29T03:21:00.829Z,27.17
2022-07-29T03:21:23.705Z,27.15
2022-07-29T03:21:46.601Z,27.19
2022-07-29T03:22:09.785Z,27.17
2022-07-29T03:22:32.726Z,27.17
2022-07-29T03:22:54.440Z,27.19
2022-07-29T03:23:20.184Z,27.18
2022-07-29T03:23:45.193Z,27.18
2022-07-29T03:24:10.674Z,27.18
2022-07-29T03:24:34.282Z,27.15
2022-07-29T03:24:55.982Z,27.15
2022-07-29T03:25:20.665Z,27.14
2022-07-29T03:25:43.882Z,27.13
2022-07-29T03:26:06.571Z,27.14
2022-07-29T03:26:28.661Z,27.14
2022-07-29T03:26:52.042Z,27.12
2022-07-29T03:27:15.105Z,27.10
2022-07-29T03:27:36.864Z,27.06
2022-07-29T03:27:58.617Z,27.10
2022-07-29T03:28:21.231Z,27.08
2022-07-29T03:28:44.198Z,27.06
2022-07-29T03:29:06.984Z,27.08
2022-07-29T03:29:33.884Z,27.06
2022-07-29T03:29:57.386Z,27.04
2022-07-29T03:30:22.152Z,27.04
2022-07-29T03:30:45.514Z,27.06
2022-07-29T03:31:07.343Z,27.05
2022-07-29T03:31:32.084Z,27.07
2022-07-29T03:31:55.486Z,27.06
2022-07-29T03:32:25.117Z,27.05
2022-07-29T03:32:47.066Z,27.02
2022-07-29T03:33:13.463Z,26.89
2022-07-29T03:33:37.112Z,26.98
2022-07-29T03:33:58.816Z,26.94
2022-07-29T03:34:21.394Z,26.95
2022-07-29T03:34:46.266Z,26.97
2022-07-29T03:35:09.027Z,26.97
2022-07-29T03:35:32.442Z,26.96
2022-07-29T03:35:54.228Z,26.97
2022-07-29T03:36:16.956Z,26.94
2022-07-29T03:36:38.930Z,26.96
2022-07-29T03:37:00.993Z,26.90
2022-07-29T03:37:24.516Z,26.92
2022-07-29T03:37:47.749Z,26.89
2022-07-29T03:38:10.452Z,26.93
2022-07-29T03:38:37.052Z,26.92
2022-07-29T03:38:59.087Z,26.88
2022-07-29T03:39:24.177Z,26.93
2022-07-29T03:39:51.488Z,26.89
2022-07-29T03:40:18.325Z,26.94
2022-07-29T03:40:46.278Z,26.95
2022-07-29T03:41:12.590Z,26.94
2022-07-29T03:41:35.842Z,26.94
2022-07-29T03:42:00.754Z,26.95
2022-07-29T03:42:25.740Z,26.97
2022-07-29T03:42:50.360Z,26.97
2022-07-29T03:43:14.141Z,26.95
2022-07-29T03:43:38.715Z,26.96
2022-07-29T03:44:14.405Z,26.94
2022-07-29T03:44:38.148Z,26.97
2022-07-29T03:45:04.360Z,26.96
2022-07-29T03:45:28.531Z,26.96
2022-07-29T03:45:53.667Z,26.90
2022-07-29T03:46:18.847Z,26.97
2022-07-29T03:46:42.604Z,26.92
2022-07-29T03:47:08.789Z,26.95
2022-07-29T03:47:43.477Z,26.93
2022-07-29T03:48:16.838Z,26.94
2022-07-29T03:48:44.556Z,26.91
2022-07-29T03:49:09.249Z,26.93
2022-07-29T03:49:33.684Z,26.91
2022-07-29T03:50:00.744Z,26.90
2022-07-29T03:50:23.892Z,26.89
2022-07-29T03:50:46.183Z,26.90
2022-07-29T03:51:07.850Z,26.90
2022-07-29T03:51:33.136Z,26.89
2022-07-29T03:51:57.223Z,26.90
2022-07-29T03:52:19.677Z,26.90
2022-07-29T03:52:45.788Z,26.89
2022-07-29T03:53:09.200Z,26.93
2022-07-29T03:53:30.972Z,26.93
2022-07-29T03:53:53.124Z,26.92
2022-07-29T03:54:16.214Z,26.92
2022-07-29T03:54:39.278Z,26.91
2022-07-29T03:55:01.838Z,26.94
2022-07-29T03:55:23.997Z,26.94
2022-07-29T03:55:48.269Z,26.90
2022-07-29T03:56:12.743Z,26.90
2022-07-29T03:56:39.497Z,26.88
2022-07-29T03:57:03.127Z,26.91
2022-07-29T03:57:29.198Z,26.88
2022-07-29T03:57:52.074Z,26.89
2022-07-29T03:58:15.545Z,26.92
2022-07-29T03:58:38.763Z,26.93
2022-07-29T03:59:04.085Z,26.90
2022-07-29T03:59:28.025Z,26.88
2022-07-29T03:59:51.986Z,26.86
2022-07-29T04:00:16.463Z,26.84
2022-07-29T04:00:39.757Z,26.83
2022-07-29T04:01:01.825Z,26.87
2022-07-29T04:01:24.848Z,26.84
2022-07-29T04:01:47.679Z,26.83
2022-07-29T04:02:14.557Z,26.83
2022-07-29T04:02:37.582Z,26.82
2022-07-29T04:02:59.464Z,26.79
2022-07-29T04:03:22.777Z,26.79
2022-07-29T04:03:46.247Z,26.80
2022-07-29T04:04:08.401Z,26.77
2022-07-29T04:04:30.162Z,26.77
2022-07-29T04:04:53.354Z,26.78
2022-07-29T04:05:15.849Z,26.76
2022-07-29T04:05:37.778Z,26.77
2022-07-29T04:06:01.768Z,26.74
2022-07-29T04:06:26.642Z,26.72
2022-07-29T04:06:49.746Z,26.70
2022-07-29T04:07:13.254Z,26.70
2022-07-29T04:07:34.919Z,26.74
2022-07-29T04:07:57.732Z,26.72
2022-07-29T04:08:19.444Z,26.70
2022-07-29T04:08:41.161Z,26.73
2022-07-29T04:09:02.928Z,26.72
2022-07-29T04:09:25.572Z,26.71
2022-07-29T04:09:47.323Z,26.71
2022-07-29T04:10:09.388Z,26.72
2022-07-29T04:10:32.178Z,26.70
2022-07-29T04:10:55.961Z,26.65
2022-07-29T04:11:18.796Z,26.67
2022-07-29T04:12:03.387Z,26.66
2022-07-29T04:12:23.206Z,26.66
2022-07-29T04:12:45.947Z,26.68
2022-07-29T04:13:07.746Z,26.69
2022-07-29T04:13:29.515Z,26.69
2022-07-29T04:13:51.226Z,26.71
2022-07-29T04:14:14.151Z,26.70
2022-07-29T04:14:36.282Z,26.72
2022-07-29T04:14:57.990Z,26.73
2022-07-29T04:15:21.287Z,26.71
2022-07-29T04:15:44.279Z,26.71
2022-07-29T04:16:06.172Z,26.75
2022-07-29T04:16:28.321Z,26.73
2022-07-29T04:16:50.120Z,26.75
2022-07-29T04:17:12.777Z,26.76
2022-07-29T04:17:34.437Z,26.75
2022-07-29T04:17:56.378Z,26.75
2022-07-29T04:18:18.081Z,26.76
2022-07-29T04:18:40.808Z,26.77
2022-07-29T04:19:03.159Z,26.77
2022-07-29T04:19:24.851Z,26.80
2022-07-29T04:19:46.609Z,26.78
2022-07-29T04:20:10.517Z,26.80
2022-07-29T04:20:32.296Z,26.81
2022-07-29T04:20:54.039Z,26.81
2022-07-29T04:21:15.743Z,26.82
2022-07-29T04:21:40.066Z,26.84
2022-07-29T04:22:02.505Z,26.83
2022-07-29T04:22:24.224Z,26.85
2022-07-29T04:22:48.726Z,26.80
2022-07-29T04:23:11.412Z,26.86
2022-07-29T04:23:34.320Z,26.71
2022-07-29T04:23:56.030Z,26.85
2022-07-29T04:24:18.496Z,26.85
2022-07-29T04:24:44.352Z,26.86
2022-07-29T04:25:07.136Z,26.85
2022-07-29T04:25:28.860Z,26.88
2022-07-29T04:25:51.559Z,26.86
2022-07-29T04:26:13.300Z,26.88
2022-07-29T04:26:35.417Z,26.82
2022-07-29T04:26:57.154Z,26.84
2022-07-29T04:27:19.889Z,26.82
2022-07-29T04:27:57.675Z,26.82
2022-07-29T04:28:19.382Z,26.82
2022-07-29T04:28:43.716Z,26.83
2022-07-29T04:29:05.473Z,26.81
2022-07-29T04:29:27.188Z,26.81
2022-07-29T04:29:56.902Z,26.80
2022-07-29T04:30:21.357Z,26.80
2022-07-29T04:30:43.117Z,26.81
2022-07-29T04:31:04.912Z,26.81
2022-07-29T04:31:27.723Z,26.79
2022-07-29T04:31:49.507Z,26.77
2022-07-29T04:32:11.379Z,26.77
2022-07-29T04:32:33.201Z,26.73
2022-07-29T04:32:54.919Z,26.73
2022-07-29T04:33:18.451Z,26.73
2022-07-29T04:33:40.775Z,26.72
2022-07-29T04:34:02.503Z,26.73
2022-07-29T04:34:28.171Z,26.74
2022-07-29T04:34:51.042Z,26.72
2022-07-29T04:35:12.732Z,26.73
2022-07-29T04:35:38.292Z,26.73
2022-07-29T04:36:00.428Z,26.74
2022-07-29T04:36:29.267Z,26.75
2022-07-29T04:36:51.521Z,26.75
2022-07-29T04:37:13.563Z,26.76
2022-07-29T04:37:35.284Z,26.77
2022-07-29T04:37:57.974Z,26.76
2022-07-29T04:38:19.683Z,26.78
2022-07-29T04:38:41.426Z,26.79
2022-07-29T04:39:03.381Z,26.77
2022-07-29T04:39:29.554Z,26.80
2022-07-29T04:39:52.290Z,26.82
2022-07-29T04:40:14.200Z,26.76
2022-07-29T04:40:38.658Z,26.78
2022-07-29T04:41:00.426Z,26.74
2022-07-29T04:41:22.135Z,26.79
2022-07-29T04:41:44.973Z,26.79
2022-07-29T04:42:09.094Z,26.78
2022-07-29T04:42:30.846Z,26.79
2022-07-29T04:42:52.986Z,26.75
2022-07-29T04:43:16.586Z,26.78
2022-07-29T04:43:45.152Z,26.77
2022-07-29T04:44:07.555Z,26.71
2022-07-29T04:44:30.575Z,26.75
2022-07-29T04:44:54.697Z,26.74
2022-07-29T04:45:16.434Z,26.75
2022-07-29T04:45:46.457Z,26.76
2022-07-29T04:46:08.202Z,26.77
2022-07-29T04:46:30.045Z,26.75
2022-07-29T04:46:51.792Z,26.73
2022-07-29T04:47:14.470Z,26.75
2022-07-29T04:47:36.270Z,26.76
2022-07-29T04:47:58.081Z,26.74
2022-07-29T04:48:21.225Z,26.76
2022-07-29T04:48:47.508Z,26.71
2022-07-29T04:49:09.437Z,26.70
2022-07-29T04:49:31.290Z,26.68
2022-07-29T04:49:53.023Z,26.70
2022-07-29T04:50:15.960Z,26.67
2022-07-29T04:50:39.410Z,26.70
2022-07-29T04:51:01.116Z,26.70
2022-07-29T04:51:22.833Z,26.67
2022-07-29T04:51:45.530Z,26.72
2022-07-29T04:52:07.639Z,26.73
2022-07-29T04:52:29.346Z,26.72
2022-07-29T04:52:51.161Z,26.74
2022-07-29T04:53:13.908Z,26.76
2022-07-29T04:53:35.623Z,26.76
2022-07-29T04:53:57.519Z,26.80
2022-07-29T04:54:20.315Z,26.82
2022-07-29T04:54:41.956Z,26.82
2022-07-29T04:55:04.610Z,26.81
2022-07-29T04:55:26.350Z,26.82
2022-07-29T04:55:49.092Z,26.83
2022-07-29T04:56:10.983Z,26.81
2022-07-29T04:56:32.821Z,26.80
2022-07-29T04:56:54.576Z,26.84
2022-07-29T04:57:17.299Z,26.84
2022-07-29T04:57:38.982Z,26.85
2022-07-29T04:58:01.207Z,26.87
2022-07-29T04:58:25.536Z,26.87
2022-07-29T04:58:48.472Z,26.88
2022-07-29T04:59:10.195Z,26.87
2022-07-29T04:59:35.064Z,26.88
2022-07-29T04:59:56.750Z,26.85
2022-07-29T05:00:19.576Z,26.85
2022-07-29T05:00:41.322Z,26.83
2022-07-29T05:01:05.007Z,26.84
2022-07-29T05:01:26.739Z,26.85
2022-07-29T05:01:49.548Z,26.87
2022-07-29T05:02:11.383Z,26.84
2022-07-29T05:02:33.199Z,26.85
2022-07-29T05:02:55.091Z,26.79
2022-07-29T05:03:17.892Z,26.81
2022-07-29T05:03:39.667Z,26.81
2022-07-29T05:04:01.314Z,26.83
2022-07-29T05:04:23.943Z,26.82
2022-07-29T05:04:45.615Z,26.81
2022-07-29T05:05:09.074Z,26.81
2022-07-29T05:05:30.979Z,26.80
2022-07-29T05:05:52.898Z,26.81
2022-07-29T05:06:14.636Z,26.80
2022-07-29T05:06:37.262Z,26.79
2022-07-29T05:06:58.980Z,26.82
2022-07-29T05:07:20.724Z,26.80
2022-07-29T05:07:43.016Z,26.83
2022-07-29T05:08:06.156Z,26.84
2022-07-29T05:08:27.939Z,26.85
2022-07-29T05:08:49.672Z,26.86
2022-07-29T05:09:11.357Z,26.84
2022-07-29T05:09:34.014Z,26.88
2022-07-29T05:09:57.808Z,26.88
2022-07-29T05:10:19.495Z,26.87
2022-07-29T05:10:41.229Z,26.89
2022-07-29T05:11:11.815Z,26.90
2022-07-29T05:11:34.742Z,26.91
2022-07-29T05:11:56.431Z,26.91
2022-07-29T05:12:18.162Z,26.91
2022-07-29T05:12:39.839Z,26.95
2022-07-29T05:13:02.489Z,26.94
2022-07-29T05:13:24.408Z,26.94
2022-07-29T05:13:47.144Z,26.93
2022-07-29T05:14:09.953Z,26.92
2022-07-29T05:14:33.403Z,26.93
2022-07-29T05:14:55.599Z,26.95
2022-07-29T05:15:18.487Z,26.94
2022-07-29T05:15:41.194Z,26.92
2022-07-29T05:16:04.707Z,26.94
2022-07-29T05:16:26.628Z,26.95
2022-07-29T05:16:49.554Z,26.92
2022-07-29T05:17:12.203Z,26.93
2022-07-29T05:17:34.663Z,26.95
2022-07-29T05:17:56.302Z,26.94